Time;durP1;ratioP1;P1;durP2;ratioP2;P2;SDS_P1;SDS_P2;PMS_P1;PMS_P2;Temp;Humidity;BMP_temperature;BMP_pressure;BME280_temperature;BME280_humidity;BME280_pressure;Samples;Min_cycle;Max_cycle;Signal;HPM_P1;HPM_P2
2021/12/28 00:01:10;;;;;;;26.83;17.65;;;0.40;99.90;;;;;;5031151;28;20041;-52
2021/12/28 00:03:38;;;;;;;29.85;17.95;;;0.40;99.90;;;;;;5035395;28;20038;-50
2021/12/28 00:06:05;;;;;;;25.08;16.60;;;0.40;99.90;;;;;;5034964;28;20036;-49
2021/12/28 00:08:31;;;;;;;28.63;17.00;;;0.40;99.90;;;;;;5033063;28;20065;-50
2021/12/28 00:10:56;;;;;;;27.58;17.48;;;0.40;99.90;;;;;;5034664;28;20112;-53
2021/12/28 00:13:24;;;;;;;28.13;16.80;;;0.50;99.90;;;;;;5035184;28;20124;-55
2021/12/28 00:16:13;;;;;;;26.88;16.65;;;0.50;99.90;;;;;;5018545;28;20392;-50
2021/12/28 00:18:36;;;;;;;27.30;17.92;;;0.50;99.90;;;;;;5031640;28;20380;-53
2021/12/28 00:21:04;;;;;;;24.42;17.17;;;0.50;99.90;;;;;;5034794;28;20121;-50
2021/12/28 00:23:38;;;;;;;28.42;18.77;;;0.40;99.90;;;;;;5010118;28;20075;-52
2021/12/28 00:26:06;;;;;;;28.13;17.13;;;0.40;99.90;;;;;;5017148;28;20044;-51
2021/12/28 00:28:32;;;;;;;29.17;17.88;;;0.40;99.90;;;;;;5032109;28;20029;-55
2021/12/28 00:30:58;;;;;;;28.13;17.23;;;0.40;99.90;;;;;;5033522;28;20509;-56
2021/12/28 00:33:24;;;;;;;26.83;16.73;;;0.50;99.90;;;;;;5019873;28;20116;-51
2021/12/28 00:35:51;;;;;;;26.60;18.45;;;0.50;99.90;;;;;;5014451;28;20031;-53
2021/12/28 00:38:22;;;;;;;23.67;16.85;;;0.50;99.90;;;;;;5031654;28;20056;-58
2021/12/28 00:40:50;;;;;;;27.45;17.70;;;0.50;99.90;;;;;;5033718;28;20025;-54
2021/12/28 00:43:17;;;;;;;28.35;17.60;;;0.50;99.90;;;;;;5032313;28;20032;-54
2021/12/28 00:45:43;;;;;;;23.70;16.48;;;0.50;99.90;;;;;;5034208;28;20091;-52
2021/12/28 00:48:09;;;;;;;25.75;17.25;;;0.50;99.90;;;;;;5033532;28;20028;-51
2021/12/28 00:50:35;;;;;;;30.38;17.42;;;0.50;99.90;;;;;;5031953;28;20060;-52
2021/12/28 00:53:01;;;;;;;27.60;18.13;;;0.50;99.90;;;;;;5034731;28;20021;-50
2021/12/28 00:55:27;;;;;;;28.15;17.60;;;0.60;99.90;;;;;;5038400;28;20030;-49
2021/12/28 00:57:53;;;;;;;29.65;17.25;;;0.60;99.90;;;;;;5036385;28;20041;-52
2021/12/28 01:00:23;;;;;;;25.92;17.35;;;0.60;99.90;;;;;;5036866;28;20040;-54
2021/12/28 01:02:49;;;;;;;27.80;17.63;;;0.60;99.90;;;;;;5035868;28;20032;-51
2021/12/28 01:05:16;;;;;;;28.17;17.42;;;0.60;99.90;;;;;;5020122;28;20032;-52
2021/12/28 01:07:41;;;;;;;27.08;17.10;;;0.50;99.90;;;;;;5038199;28;20120;-49
2021/12/28 01:10:11;;;;;;;25.45;16.85;;;0.60;99.90;;;;;;5035123;28;20912;-49
2021/12/28 01:12:37;;;;;;;26.75;16.50;;;0.60;99.90;;;;;;5034998;28;20021;-52
2021/12/28 01:15:06;;;;;;;26.27;16.52;;;0.60;99.90;;;;;;5035652;28;20032;-52
2021/12/28 01:17:32;;;;;;;29.23;17.92;;;0.60;99.90;;;;;;5035259;28;20148;-51
2021/12/28 01:19:58;;;;;;;26.02;17.10;;;0.60;99.90;;;;;;5033059;28;20052;-53
2021/12/28 01:22:23;;;;;;;28.75;17.13;;;0.60;99.90;;;;;;5036662;28;20491;-51
2021/12/28 01:24:52;;;;;;;26.88;16.70;;;0.60;99.90;;;;;;5014258;28;20033;-52
2021/12/28 01:27:18;;;;;;;27.77;15.65;;;0.60;99.90;;;;;;5024781;28;20483;-51
2021/12/28 01:29:43;;;;;;;27.50;17.23;;;0.60;99.90;;;;;;5019348;28;20029;-51
2021/12/28 01:32:10;;;;;;;26.17;16.80;;;0.60;99.90;;;;;;5036455;28;20026;-53
2021/12/28 01:34:36;;;;;;;23.85;16.02;;;0.60;99.90;;;;;;5017136;28;20026;-53
2021/12/28 01:37:02;;;;;;;24.08;16.75;;;0.60;99.90;;;;;;5036694;28;20511;-55
2021/12/28 01:39:27;;;;;;;28.45;17.00;;;0.60;99.90;;;;;;5037089;28;20047;-52
2021/12/28 01:41:53;;;;;;;27.23;16.75;;;0.60;99.90;;;;;;5014438;28;20024;-52
2021/12/28 01:44:18;;;;;;;27.13;15.52;;;0.60;99.90;;;;;;5035792;28;20435;-51
2021/12/28 01:46:44;;;;;;;28.05;16.67;;;0.60;99.90;;;;;;5038419;28;20047;-52
2021/12/28 01:49:11;;;;;;;28.13;16.00;;;0.60;99.90;;;;;;5038084;28;20096;-52
2021/12/28 01:51:37;;;;;;;24.63;16.92;;;0.60;99.90;;;;;;5035513;28;20030;-55
2021/12/28 01:54:04;;;;;;;25.33;16.33;;;0.60;99.90;;;;;;5036702;28;20017;-53
2021/12/28 01:56:40;;;;;;;24.65;15.20;;;0.60;99.90;;;;;;5034907;28;20064;-51
2021/12/28 01:59:07;;;;;;;28.23;17.10;;;0.60;99.90;;;;;;5034411;28;20450;-53
2021/12/28 02:01:33;;;;;;;24.65;16.08;;;0.60;99.90;;;;;;5031140;28;20472;-51
2021/12/28 02:04:01;;;;;;;26.70;17.15;;;0.60;99.90;;;;;;5031211;28;20029;-49
2021/12/28 02:06:28;;;;;;;25.63;16.15;;;0.60;99.90;;;;;;5026467;28;20467;-49
2021/12/28 02:08:54;;;;;;;27.95;17.67;;;0.60;99.90;;;;;;5033939;28;20030;-50
2021/12/28 02:11:20;;;;;;;25.35;16.98;;;0.60;99.90;;;;;;5036436;28;20135;-52
2021/12/28 02:13:46;;;;;;;28.60;17.02;;;0.60;99.90;;;;;;5034150;28;20499;-54
2021/12/28 02:16:11;;;;;;;26.33;17.77;;;0.60;99.90;;;;;;5036265;28;20495;-50
2021/12/28 02:18:37;;;;;;;31.00;17.73;;;0.60;99.90;;;;;;5036381;28;20064;-49
2021/12/28 02:21:06;;;;;;;26.38;16.48;;;0.60;99.90;;;;;;5038166;28;20483;-52
2021/12/28 02:23:32;;;;;;;27.52;16.40;;;0.60;99.90;;;;;;5032859;28;20183;-51
2021/12/28 02:25:58;;;;;;;27.88;16.10;;;0.60;99.90;;;;;;5036289;28;20395;-49
2021/12/28 02:28:24;;;;;;;28.55;17.20;;;0.60;99.90;;;;;;5035488;28;20049;-51
2021/12/28 02:30:56;;;;;;;29.65;18.02;;;0.50;99.90;;;;;;5037691;28;20428;-52
2021/12/28 02:33:25;;;;;;;27.35;16.85;;;0.60;99.90;;;;;;5034333;28;20025;-53
2021/12/28 02:35:55;;;;;;;26.95;16.58;;;0.50;99.90;;;;;;5033284;28;20017;-49
2021/12/28 02:38:21;;;;;;;27.80;17.95;;;0.60;99.90;;;;;;5035812;28;20112;-49
2021/12/28 02:40:47;;;;;;;31.92;19.05;;;0.60;99.90;;;;;;5038520;28;20451;-52
2021/12/28 02:43:15;;;;;;;26.38;17.13;;;0.60;99.90;;;;;;5032797;28;20041;-53
2021/12/28 02:45:57;;;;;;;26.83;17.75;;;0.60;99.90;;;;;;5036434;28;20028;-51
2021/12/28 02:48:24;;;;;;;30.10;17.38;;;0.60;99.90;;;;;;5033227;28;20249;-53
2021/12/28 02:50:54;;;;;;;24.52;18.33;;;0.60;99.90;;;;;;5035401;28;20021;-51
2021/12/28 02:53:21;;;;;;;30.17;18.20;;;0.60;99.90;;;;;;5033539;28;20044;-52
2021/12/28 02:55:52;;;;;;;33.40;18.75;;;0.60;99.90;;;;;;5033104;28;20021;-48
2021/12/28 02:58:30;;;;;;;30.27;17.65;;;0.60;99.90;;;;;;5034443;28;20110;-51
2021/12/28 03:01:00;;;;;;;28.35;17.98;;;0.60;99.90;;;;;;5036069;28;20060;-53
2021/12/28 03:03:27;;;;;;;28.50;18.25;;;0.60;99.90;;;;;;5021351;28;20036;-51
2021/12/28 03:05:58;;;;;;;31.38;18.48;;;0.60;99.90;;;;;;5029538;28;20027;-49
2021/12/28 03:08:26;;;;;;;28.17;18.20;;;0.60;99.90;;;;;;5034713;28;20064;-51
2021/12/28 03:10:53;;;;;;;27.65;17.38;;;0.60;99.90;;;;;;5018643;28;20043;-52
2021/12/28 03:13:23;;;;;;;30.40;18.27;;;0.60;99.90;;;;;;5036244;28;20022;-50
2021/12/28 03:15:50;;;;;;;29.67;18.02;;;0.60;99.90;;;;;;5033850;28;20025;-50
2021/12/28 03:18:16;;;;;;;28.65;18.02;;;0.60;99.90;;;;;;5033422;28;20086;-49
2021/12/28 03:20:41;;;;;;;27.77;16.98;;;0.60;99.90;;;;;;5034979;28;20036;-49
2021/12/28 03:23:07;;;;;;;29.73;18.95;;;0.60;99.90;;;;;;5037272;28;20475;-50
2021/12/28 03:25:33;;;;;;;32.97;17.23;;;0.60;99.90;;;;;;5033568;28;20029;-51
2021/12/28 03:28:02;;;;;;;28.48;17.42;;;0.60;99.90;;;;;;5032818;28;20028;-49
2021/12/28 03:30:28;;;;;;;32.03;18.55;;;0.60;99.90;;;;;;5025721;28;20040;-52
2021/12/28 03:32:54;;;;;;;28.67;18.55;;;0.60;99.90;;;;;;5037396;28;20518;-52
2021/12/28 03:35:20;;;;;;;30.10;19.27;;;0.70;99.90;;;;;;5034400;28;20041;-49
2021/12/28 03:37:46;;;;;;;28.15;18.65;;;0.60;99.90;;;;;;5033749;28;20029;-52
2021/12/28 03:40:15;;;;;;;28.88;18.75;;;0.70;99.90;;;;;;5036444;28;20025;-51
2021/12/28 03:42:43;;;;;;;27.02;17.88;;;0.70;99.90;;;;;;5017621;28;20090;-50
2021/12/28 03:45:09;;;;;;;29.17;19.85;;;0.60;99.90;;;;;;5032472;28;20056;-54
2021/12/28 03:47:36;;;;;;;32.40;19.05;;;0.70;99.90;;;;;;5032302;28;20265;-51
2021/12/28 03:50:06;;;;;;;26.85;17.42;;;0.60;99.90;;;;;;5031441;28;20029;-51
2021/12/28 03:52:34;;;;;;;30.30;19.23;;;0.60;99.90;;;;;;5031062;28;20091;-50
2021/12/28 03:55:00;;;;;;;29.88;18.63;;;0.60;99.90;;;;;;5032941;28;20104;-56
2021/12/28 03:57:25;;;;;;;32.92;19.73;;;0.60;99.90;;;;;;5033821;28;20135;-56
2021/12/28 03:59:51;;;;;;;33.05;19.15;;;0.60;99.90;;;;;;5014951;28;20479;-54
2021/12/28 04:02:17;;;;;;;28.20;17.15;;;0.60;99.90;;;;;;5036351;28;20104;-49
2021/12/28 04:04:42;;;;;;;33.90;19.83;;;0.60;99.90;;;;;;5033126;28;20037;-55
2021/12/28 04:07:09;;;;;;;30.30;18.75;;;0.60;99.90;;;;;;5008228;28;20441;-53
2021/12/28 04:12:17;;;;;;;34.22;20.65;;;0.60;99.90;;;;;;5035303;28;20344;-48
2021/12/28 04:14:43;;;;;;;29.52;18.85;;;0.60;99.90;;;;;;5030386;28;20049;-51
2021/12/28 04:17:08;;;;;;;29.30;19.73;;;0.60;99.90;;;;;;5030168;28;20116;-52
2021/12/28 04:19:34;;;;;;;32.05;18.58;;;0.60;99.90;;;;;;5031557;28;20022;-50
2021/12/28 04:21:59;;;;;;;31.33;19.30;;;0.70;99.90;;;;;;5037205;28;20021;-50
2021/12/28 04:24:25;;;;;;;31.10;19.10;;;0.60;99.90;;;;;;5035983;28;20063;-52
2021/12/28 04:26:51;;;;;;;33.60;20.35;;;0.60;99.90;;;;;;5031969;28;20029;-54
2021/12/28 04:29:16;;;;;;;33.45;20.30;;;0.60;99.90;;;;;;5033187;28;20095;-54
2021/12/28 04:31:42;;;;;;;31.80;19.13;;;0.60;99.90;;;;;;5038914;28;20021;-52
2021/12/28 04:34:11;;;;;;;31.58;20.75;;;0.60;99.90;;;;;;5040557;28;20045;-55
2021/12/28 04:36:36;;;;;;;34.80;19.40;;;0.60;99.90;;;;;;5038810;28;20033;-54
2021/12/28 04:39:04;;;;;;;32.45;19.52;;;0.60;99.90;;;;;;5016652;28;20442;-51
2021/12/28 04:41:31;;;;;;;33.72;20.05;;;0.60;99.90;;;;;;5037079;28;20036;-52
2021/12/28 04:43:59;;;;;;;33.22;20.65;;;0.60;99.90;;;;;;5017587;28;20120;-54
2021/12/28 04:46:25;;;;;;;33.65;19.85;;;0.60;99.90;;;;;;5019964;28;20068;-54
2021/12/28 04:48:51;;;;;;;31.73;20.52;;;0.60;99.90;;;;;;5038013;28;20057;-52
2021/12/28 04:51:19;;;;;;;34.10;20.88;;;0.60;99.90;;;;;;5018213;28;20443;-49
2021/12/28 04:53:45;;;;;;;30.98;20.20;;;0.60;99.90;;;;;;5037664;28;20025;-54
2021/12/28 04:56:11;;;;;;;32.60;19.95;;;0.60;99.90;;;;;;5035615;28;20498;-50
2021/12/28 04:58:36;;;;;;;34.38;20.30;;;0.60;99.90;;;;;;5038140;28;20022;-51
2021/12/28 05:01:02;;;;;;;33.72;19.52;;;0.60;99.90;;;;;;5036418;28;20025;-49
2021/12/28 05:03:31;;;;;;;29.98;18.77;;;0.60;99.90;;;;;;5037680;28;20017;-50
2021/12/28 05:05:56;;;;;;;31.63;19.55;;;0.50;99.90;;;;;;5035560;28;20029;-50
2021/12/28 05:08:22;;;;;;;37.13;20.65;;;0.50;99.90;;;;;;5018837;28;20043;-55
2021/12/28 05:10:50;;;;;;;34.70;20.40;;;0.50;99.90;;;;;;5038989;28;20026;-50
2021/12/28 05:13:16;;;;;;;34.05;19.38;;;0.50;99.90;;;;;;5039808;28;20051;-50
2021/12/28 05:15:45;;;;;;;37.50;20.42;;;0.60;99.90;;;;;;5036926;28;21509;-52
2021/12/28 05:18:13;;;;;;;35.17;20.15;;;0.60;99.90;;;;;;5036309;28;20466;-48
2021/12/28 05:20:39;;;;;;;32.33;19.70;;;0.50;99.90;;;;;;5037424;28;20106;-52
2021/12/28 05:23:05;;;;;;;31.23;19.95;;;0.50;99.90;;;;;;5039133;28;20116;-53
2021/12/28 05:25:31;;;;;;;33.25;20.17;;;0.50;99.90;;;;;;5037155;28;20109;-52
2021/12/28 05:27:56;;;;;;;32.83;20.58;;;0.50;99.90;;;;;;5034199;28;20392;-53
2021/12/28 05:30:22;;;;;;;37.17;21.25;;;0.50;99.90;;;;;;5039318;28;20029;-49
2021/12/28 05:32:48;;;;;;;34.67;19.67;;;0.50;99.90;;;;;;5032944;28;20036;-51
2021/12/28 05:35:14;;;;;;;36.17;20.92;;;0.50;99.90;;;;;;5022783;28;20030;-50
2021/12/28 05:37:40;;;;;;;33.38;21.42;;;0.50;99.90;;;;;;5013335;28;20033;-56
2021/12/28 05:40:08;;;;;;;34.15;21.63;;;0.50;99.90;;;;;;5036258;28;20033;-51
2021/12/28 05:42:34;;;;;;;34.67;21.10;;;0.50;99.90;;;;;;5037082;28;20126;-52
2021/12/28 05:44:59;;;;;;;34.05;21.58;;;0.50;99.90;;;;;;5038451;28;20053;-50
2021/12/28 05:47:25;;;;;;;34.35;19.73;;;0.50;99.90;;;;;;5035830;28;20033;-52
2021/12/28 05:49:53;;;;;;;31.15;21.17;;;0.60;99.90;;;;;;5034343;28;20489;-48
2021/12/28 05:52:22;;;;;;;32.60;19.95;;;0.60;99.90;;;;;;5036383;28;20403;-55
2021/12/28 05:54:47;;;;;;;39.22;21.08;;;0.60;99.90;;;;;;5037646;28;20013;-51
2021/12/28 05:57:13;;;;;;;32.33;21.33;;;0.60;99.90;;;;;;5017528;28;20413;-52
2021/12/28 05:59:41;;;;;;;36.28;22.38;;;0.60;99.90;;;;;;5032221;28;20047;-48
2021/12/28 06:02:09;;;;;;;35.25;21.17;;;0.60;99.90;;;;;;5029127;28;20017;-49
2021/12/28 06:04:35;;;;;;;31.98;20.50;;;0.70;99.90;;;;;;5036866;28;20435;-49
2021/12/28 06:07:01;;;;;;;32.00;19.70;;;0.70;99.90;;;;;;5020150;28;20021;-47
2021/12/28 06:09:27;;;;;;;32.83;20.85;;;0.70;99.90;;;;;;5035307;28;20029;-50
2021/12/28 06:11:52;;;;;;;35.67;22.17;;;0.70;99.90;;;;;;5035808;28;20017;-51
2021/12/28 06:14:18;;;;;;;35.83;19.80;;;0.70;99.90;;;;;;5037484;28;20048;-50
2021/12/28 06:16:44;;;;;;;35.28;21.77;;;0.70;99.90;;;;;;5036622;28;20376;-51
2021/12/28 06:19:09;;;;;;;30.77;20.30;;;0.70;99.90;;;;;;5032142;28;20120;-50
2021/12/28 06:21:36;;;;;;;33.58;19.70;;;0.70;99.90;;;;;;5015884;28;20051;-49
2021/12/28 06:24:03;;;;;;;33.20;19.60;;;0.70;99.90;;;;;;5033275;28;20571;-49
2021/12/28 06:26:30;;;;;;;34.55;20.38;;;0.70;99.90;;;;;;5020570;28;20033;-50
2021/12/28 06:28:57;;;;;;;32.83;20.27;;;0.70;99.90;;;;;;5035631;28;20305;-52
2021/12/28 06:31:28;;;;;;;32.00;21.00;;;0.70;99.90;;;;;;5031628;28;20025;-51
2021/12/28 06:33:57;;;;;;;35.60;20.20;;;0.70;99.90;;;;;;5036784;28;20109;-49
2021/12/28 06:36:23;;;;;;;33.47;20.42;;;0.70;99.90;;;;;;5035735;28;20566;-53
2021/12/28 06:38:50;;;;;;;37.45;21.75;;;0.70;99.90;;;;;;5034421;28;20097;-49
2021/12/28 06:41:16;;;;;;;32.50;20.15;;;0.70;99.90;;;;;;5035245;28;20049;-50
2021/12/28 06:43:41;;;;;;;35.50;21.80;;;0.70;99.90;;;;;;5016911;28;20112;-51
2021/12/28 06:46:07;;;;;;;36.10;21.55;;;0.70;99.90;;;;;;5037795;28;20551;-54
2021/12/28 06:48:33;;;;;;;35.67;22.42;;;0.70;99.90;;;;;;5030713;28;20026;-48
2021/12/28 06:50:58;;;;;;;34.80;22.13;;;0.70;99.90;;;;;;5029970;28;20028;-51
2021/12/28 06:53:24;;;;;;;35.63;22.17;;;0.70;99.90;;;;;;5035977;28;20025;-50
2021/12/28 06:55:50;;;;;;;38.17;22.10;;;0.70;99.90;;;;;;5038318;28;20017;-50
2021/12/28 06:58:16;;;;;;;34.78;20.88;;;0.70;99.90;;;;;;5035605;28;20057;-48
2021/12/28 07:00:41;;;;;;;31.15;20.10;;;0.60;99.90;;;;;;5035298;28;20030;-52
2021/12/28 07:03:08;;;;;;;35.78;20.85;;;0.60;99.90;;;;;;5035783;28;20511;-48
2021/12/28 07:05:33;;;;;;;33.03;21.95;;;0.70;99.90;;;;;;5031766;28;20100;-52
2021/12/28 07:07:59;;;;;;;36.75;21.40;;;0.60;99.90;;;;;;5034916;28;20455;-50
2021/12/28 07:10:25;;;;;;;37.20;21.35;;;0.60;99.90;;;;;;5014011;28;20029;-50
2021/12/28 07:12:51;;;;;;;38.63;22.42;;;0.60;99.90;;;;;;5035227;28;20074;-48
2021/12/28 07:15:18;;;;;;;37.30;22.30;;;0.70;99.90;;;;;;5032270;28;20480;-50
2021/12/28 07:17:44;;;;;;;37.53;21.58;;;0.60;99.90;;;;;;5033620;28;20029;-49
2021/12/28 07:20:10;;;;;;;38.53;23.25;;;0.60;99.90;;;;;;5033415;28;20406;-54
2021/12/28 07:22:37;;;;;;;38.13;23.08;;;0.60;99.90;;;;;;5035221;28;20475;-55
2021/12/28 07:25:03;;;;;;;37.78;22.02;;;0.60;99.90;;;;;;5037105;28;20078;-49
2021/12/28 07:27:29;;;;;;;36.53;22.55;;;0.60;99.90;;;;;;5036157;28;20116;-48
2021/12/28 07:29:54;;;;;;;34.45;23.10;;;0.60;99.90;;;;;;5033728;28;20148;-48
2021/12/28 07:32:23;;;;;;;34.42;21.40;;;0.60;99.90;;;;;;5033833;28;20025;-52
2021/12/28 07:34:51;;;;;;;32.90;20.98;;;0.60;99.90;;;;;;5035075;28;20114;-47
2021/12/28 07:37:17;;;;;;;42.53;23.88;;;0.60;99.90;;;;;;5034710;28;20120;-50
2021/12/28 07:39:42;;;;;;;37.95;23.02;;;0.60;99.90;;;;;;5035021;28;20024;-48
2021/12/28 07:42:08;;;;;;;34.15;21.50;;;0.60;99.90;;;;;;5017852;28;20026;-52
2021/12/28 07:44:35;;;;;;;37.50;23.55;;;0.60;99.90;;;;;;5034228;28;20045;-48
2021/12/28 07:47:02;;;;;;;34.38;22.23;;;0.60;99.90;;;;;;5035775;28;20036;-48
2021/12/28 07:49:28;;;;;;;34.95;21.15;;;0.60;99.90;;;;;;5017933;28;20039;-49
2021/12/28 07:51:53;;;;;;;42.80;23.63;;;0.60;99.90;;;;;;5033497;28;20017;-49
2021/12/28 07:54:19;;;;;;;37.60;22.20;;;0.60;99.90;;;;;;5012192;28;20064;-54
2021/12/28 07:56:44;;;;;;;37.13;21.88;;;0.60;99.90;;;;;;5029130;28;20085;-48
2021/12/28 07:59:10;;;;;;;34.88;22.08;;;0.60;99.90;;;;;;5036093;28;20116;-48
2021/12/28 08:01:37;;;;;;;40.15;23.20;;;0.60;99.90;;;;;;5032126;28;20039;-48
2021/12/28 08:04:02;;;;;;;36.15;21.73;;;0.70;99.90;;;;;;5033451;28;20484;-48
2021/12/28 08:06:28;;;;;;;38.30;24.02;;;0.70;99.90;;;;;;5030531;28;20033;-48
2021/12/28 08:08:54;;;;;;;39.85;23.85;;;0.70;99.90;;;;;;5034763;28;20033;-48
2021/12/28 08:11:22;;;;;;;35.20;22.80;;;0.70;99.90;;;;;;5031755;28;20479;-51
2021/12/28 08:13:48;;;;;;;33.58;21.67;;;0.70;99.90;;;;;;5029952;28;20013;-52
2021/12/28 08:16:13;;;;;;;40.03;23.67;;;0.70;99.90;;;;;;5034286;28;20017;-48
2021/12/28 08:18:39;;;;;;;45.75;24.30;;;0.70;99.90;;;;;;5026146;28;20045;-49
2021/12/28 08:21:04;;;;;;;37.50;23.10;;;0.70;99.90;;;;;;5015548;28;20423;-47
2021/12/28 08:23:30;;;;;;;41.80;24.48;;;0.70;99.90;;;;;;5033379;28;20025;-50
2021/12/28 08:25:55;;;;;;;40.95;24.20;;;0.70;99.90;;;;;;5015946;28;20026;-49
2021/12/28 08:28:21;;;;;;;37.05;23.33;;;0.70;99.90;;;;;;5033413;28;20123;-47
2021/12/28 08:30:47;;;;;;;45.78;24.85;;;0.80;99.90;;;;;;5034822;28;20024;-47
2021/12/28 08:33:13;;;;;;;46.10;24.58;;;0.80;99.90;;;;;;5034817;28;20024;-51
2021/12/28 08:35:39;;;;;;;40.08;23.02;;;0.70;99.90;;;;;;5032879;28;20108;-51
2021/12/28 08:38:10;;;;;;;41.75;25.27;;;0.70;99.90;;;;;;5034870;28;20107;-48
2021/12/28 08:40:39;;;;;;;40.83;24.38;;;0.70;99.90;;;;;;5035477;28;20022;-48
2021/12/28 08:43:05;;;;;;;40.42;25.33;;;0.80;99.90;;;;;;5033966;28;20124;-49
2021/12/28 08:45:33;;;;;;;39.33;23.15;;;0.80;99.90;;;;;;5034310;28;20124;-49
2021/12/28 08:47:59;;;;;;;45.35;24.58;;;0.80;99.90;;;;;;5033034;28;20064;-51
2021/12/28 08:50:25;;;;;;;37.13;24.33;;;0.80;99.90;;;;;;5036009;28;20057;-52
2021/12/28 08:52:51;;;;;;;41.25;24.38;;;0.80;99.90;;;;;;5036842;28;20025;-48
2021/12/28 08:55:18;;;;;;;39.38;25.73;;;0.80;99.90;;;;;;5018088;28;20056;-47
2021/12/28 08:57:44;;;;;;;43.60;25.27;;;0.90;99.90;;;;;;5033123;28;20033;-52
2021/12/28 09:00:18;;;;;;;44.33;25.08;;;0.90;99.90;;;;;;5031303;28;20036;-47
2021/12/28 09:02:43;;;;;;;41.17;25.77;;;0.90;99.90;;;;;;5032818;28;20096;-50
2021/12/28 09:05:09;;;;;;;42.65;24.23;;;0.90;99.90;;;;;;5035195;28;20491;-48
2021/12/28 09:07:35;;;;;;;45.53;26.80;;;0.90;99.90;;;;;;5031342;28;20084;-54
2021/12/28 09:10:05;;;;;;;43.13;26.67;;;0.90;99.90;;;;;;5033061;28;20025;-47
2021/12/28 09:12:30;;;;;;;46.90;26.50;;;0.90;99.90;;;;;;5027447;28;20160;-49
2021/12/28 09:14:59;;;;;;;45.53;25.42;;;0.90;99.90;;;;;;5028098;28;20178;-50
2021/12/28 09:17:24;;;;;;;45.83;26.70;;;0.90;99.90;;;;;;5031415;28;20057;-47
2021/12/28 09:19:50;;;;;;;45.08;26.58;;;1.00;99.90;;;;;;5032402;28;20495;-49
2021/12/28 09:22:16;;;;;;;40.47;25.60;;;1.00;99.90;;;;;;5033460;28;20540;-51
2021/12/28 09:24:41;;;;;;;46.03;25.90;;;1.00;99.90;;;;;;5032244;28;20036;-47
2021/12/28 09:27:07;;;;;;;42.00;25.45;;;1.00;99.90;;;;;;5015361;28;20434;-48
2021/12/28 09:29:33;;;;;;;42.53;26.08;;;1.00;99.90;;;;;;5014159;28;20029;-48
2021/12/28 09:32:00;;;;;;;46.47;26.38;;;1.00;99.90;;;;;;5034499;28;20013;-47
2021/12/28 09:34:26;;;;;;;45.33;26.88;;;1.00;99.90;;;;;;5033614;28;20026;-47
2021/12/28 09:36:55;;;;;;;45.20;26.02;;;1.10;99.90;;;;;;5037755;28;20021;-50
2021/12/28 09:39:22;;;;;;;43.65;25.98;;;1.10;99.90;;;;;;5034079;28;20041;-50
2021/12/28 09:41:53;;;;;;;43.95;25.80;;;1.10;99.90;;;;;;5034469;28;20025;-51
2021/12/28 09:44:19;;;;;;;41.40;25.40;;;1.20;99.90;;;;;;5035187;28;20052;-48
2021/12/28 09:46:45;;;;;;;47.65;27.00;;;1.10;99.90;;;;;;5033980;28;20084;-48
2021/12/28 09:49:11;;;;;;;45.30;26.15;;;1.10;99.90;;;;;;5024819;28;20032;-49
2021/12/28 09:51:36;;;;;;;45.70;26.85;;;1.20;99.90;;;;;;5036135;28;20013;-47
2021/12/28 09:54:02;;;;;;;47.65;26.50;;;1.10;99.90;;;;;;5037349;28;20025;-50
2021/12/28 09:56:28;;;;;;;48.13;26.90;;;1.20;99.90;;;;;;5020483;28;20387;-47
2021/12/28 09:58:53;;;;;;;45.42;27.52;;;1.20;99.90;;;;;;5036801;28;20033;-47
2021/12/28 10:01:20;;;;;;;39.03;24.35;;;1.10;99.90;;;;;;5036614;28;20107;-52
2021/12/28 10:03:47;;;;;;;51.60;26.08;;;1.10;99.90;;;;;;5035425;28;20028;-50
2021/12/28 10:06:22;;;;;;;45.08;26.38;;;1.20;99.90;;;;;;5030354;28;20029;-49
2021/12/28 10:09:02;;;;;;;39.47;25.15;;;1.20;99.90;;;;;;5036424;28;20037;-51
2021/12/28 10:11:36;;;;;;;49.85;26.35;;;1.20;99.90;;;;;;5032550;28;20025;-50
2021/12/28 10:14:17;;;;;;;45.00;24.58;;;1.20;99.90;;;;;;5036338;28;20063;-47
2021/12/28 10:16:51;;;;;;;48.17;27.02;;;1.20;99.90;;;;;;5037239;28;20014;-50
2021/12/28 10:19:38;;;;;;;46.78;26.83;;;1.20;99.90;;;;;;5035011;28;20033;-50
2021/12/28 10:22:22;;;;;;;;;;;1.30;99.90;;;;;;5035630;28;20036;-47
2021/12/28 10:24:50;;;;;;;51.42;25.35;;;1.30;99.90;;;;;;5036079;28;19967;-48
2021/12/28 10:27:19;;;;;;;43.85;25.85;;;1.30;99.90;;;;;;5036877;28;20029;-52
2021/12/28 10:29:45;;;;;;;49.72;28.17;;;1.30;99.90;;;;;;5033997;28;20075;-47
2021/12/28 10:32:25;;;;;;;47.22;26.60;;;1.30;99.90;;;;;;5035395;28;20438;-50
2021/12/28 10:35:01;;;;;;;49.53;27.20;;;1.20;99.90;;;;;;5036129;28;20056;-50
2021/12/28 10:37:30;;;;;;;48.28;28.02;;;1.30;99.90;;;;;;5037140;28;20032;-59
2021/12/28 10:39:58;;;;;;;50.45;28.10;;;1.30;99.90;;;;;;5031496;28;20036;-49
2021/12/28 10:42:44;;;;;;;48.60;28.75;;;1.30;99.90;;;;;;5032910;28;20037;-47
2021/12/28 10:45:17;;;;;;;43.10;26.37;;;1.30;99.90;;;;;;5036939;28;20119;-48
2021/12/28 10:47:43;;;;;;;47.47;27.48;;;1.30;99.90;;;;;;5034230;28;20291;-49
2021/12/28 10:50:22;;;;;;;48.88;29.75;;;1.30;99.90;;;;;;5035399;28;20021;-50
2021/12/28 10:53:00;;;;;;;49.20;27.90;;;1.30;99.90;;;;;;5035697;28;20025;-53
2021/12/28 10:55:28;;;;;;;42.00;26.25;;;1.30;99.90;;;;;;5034482;28;20602;-51
2021/12/28 10:57:53;;;;;;;50.80;29.40;;;1.30;99.90;;;;;;5037498;28;20029;-53
2021/12/28 11:00:25;;;;;;;42.17;26.40;;;1.30;99.90;;;;;;5035633;28;20056;-52
2021/12/28 11:03:17;;;;;;;51.65;28.58;;;1.30;99.90;;;;;;5028870;28;20036;-52
2021/12/28 11:05:53;;;;;;;47.80;28.20;;;1.40;99.90;;;;;;5035334;28;20446;-48
2021/12/28 11:08:20;;;;;;;57.47;27.95;;;1.40;99.90;;;;;;5035568;28;20037;-49
2021/12/28 11:10:53;;;;;;;51.03;29.13;;;1.40;99.90;;;;;;5036216;28;20387;-49
2021/12/28 11:13:21;;;;;;;43.22;27.50;;;1.40;99.90;;;;;;5033862;28;20025;-48
2021/12/28 11:15:48;;;;;;;48.42;28.10;;;1.40;99.90;;;;;;5034305;28;20076;-56
2021/12/28 11:18:18;;;;;;;47.35;28.13;;;1.50;99.90;;;;;;5011643;28;20506;-49
2021/12/28 11:20:44;;;;;;;50.03;27.60;;;1.50;99.90;;;;;;5037364;28;20029;-51
2021/12/28 11:23:12;;;;;;;46.40;27.33;;;1.50;99.90;;;;;;5033881;28;20024;-49
2021/12/28 11:25:38;;;;;;;54.42;29.67;;;1.50;99.90;;;;;;5035438;28;20035;-49
2021/12/28 11:28:18;;;;;;;50.10;28.45;;;1.50;99.90;;;;;;5034236;28;20030;-51
2021/12/28 11:31:16;;;;;;;53.92;29.35;;;1.50;99.90;;;;;;5035564;28;20117;-47
2021/12/28 11:33:53;;;;;;;52.67;28.88;;;1.50;99.90;;;;;;5028678;28;20020;-48
2021/12/28 11:36:23;;;;;;;49.10;28.50;;;1.50;99.90;;;;;;5032584;28;20052;-49
2021/12/28 11:38:48;;;;;;;55.45;31.27;;;1.50;99.90;;;;;;5030392;28;20509;-49
2021/12/28 11:41:15;;;;;;;56.22;29.55;;;1.50;99.90;;;;;;5033948;28;20143;-51
2021/12/28 11:43:42;;;;;;;51.33;29.25;;;1.50;99.90;;;;;;5033398;28;20476;-51
2021/12/28 11:46:08;;;;;;;57.80;30.42;;;1.50;99.90;;;;;;5032248;28;20029;-49
2021/12/28 11:48:37;;;;;;;50.28;27.85;;;1.50;99.90;;;;;;5033686;28;20026;-52
2021/12/28 11:51:04;;;;;;;50.88;28.73;;;1.60;99.90;;;;;;5034852;28;20395;-48
2021/12/28 11:53:30;;;;;;;51.50;29.05;;;1.50;99.90;;;;;;5035491;28;20414;-51
2021/12/28 11:55:58;;;;;;;50.15;28.17;;;1.50;99.90;;;;;;5015285;28;20110;-48
2021/12/28 11:58:49;;;;;;;51.95;29.42;;;1.50;99.90;;;;;;5033323;28;20032;-48
2021/12/28 12:01:38;;;;;;;52.65;28.77;;;1.50;99.90;;;;;;5034049;28;20059;-50
2021/12/28 12:04:24;;;;;;;49.67;28.65;;;1.60;99.90;;;;;;5034111;28;20032;-48
2021/12/28 12:07:17;;;;;;;50.63;27.38;;;1.60;99.90;;;;;;5031652;28;20495;-50
2021/12/28 12:09:49;;;;;;;51.78;28.40;;;1.60;99.90;;;;;;5034350;28;20029;-51
2021/12/28 12:12:49;;;;;;;50.88;28.95;;;1.60;99.90;;;;;;5035749;28;20033;-51
2021/12/28 12:15:18;;;;;;;46.67;28.85;;;1.70;99.90;;;;;;5009390;28;20045;-50
2021/12/28 12:17:44;;;;;;;53.67;29.45;;;1.70;99.90;;;;;;5032765;28;20522;-51
2021/12/28 12:20:10;;;;;;;50.65;29.08;;;1.70;99.90;;;;;;4990319;28;20122;-48
2021/12/28 12:22:41;;;;;;;50.50;29.13;;;1.70;99.90;;;;;;5036220;28;20504;-55
2021/12/28 12:25:08;;;;;;;53.65;29.05;;;1.70;99.90;;;;;;5035514;28;20057;-47
2021/12/28 12:28:00;;;;;;;55.45;31.73;;;1.70;99.90;;;;;;5032208;28;20551;-52
2021/12/28 12:30:28;;;;;;;58.75;30.25;;;1.70;99.90;;;;;;5034936;28;20078;-51
2021/12/28 12:33:06;;;;;;;48.10;29.58;;;1.70;99.90;;;;;;5031789;28;20498;-51
2021/12/28 12:35:38;;;;;;;47.92;29.10;;;1.70;99.90;;;;;;5033134;28;20464;-52
2021/12/28 12:38:24;;;;;;;54.67;28.80;;;1.70;99.90;;;;;;5035173;28;20442;-50
2021/12/28 12:41:03;;;;;;;55.70;30.58;;;1.80;99.90;;;;;;5033883;28;20104;-52
2021/12/28 12:46:21;;;;;;;51.05;29.05;;;1.80;99.90;;;;;;5034791;28;20045;-49
2021/12/28 12:48:46;;;;;;;52.53;29.65;;;1.80;99.90;;;;;;5030998;28;20068;-47